sensor_id;sensor_type;location;lat;lon;timestamp;temperature;humidity
13808;DHT22;40769;51.512;5.494;2022-12-10T00:01:15;2.20;99.90
13808;DHT22;40769;51.512;5.494;2022-12-10T00:03:45;2.00;99.90
13808;DHT22;40769;51.512;5.494;2022-12-10T00:06:13;1.90;99.90
13808;DHT22;40769;51.512;5.494;2022-12-10T00:08:39;1.80;99.90
13808;DHT22;40769;51.512;5.494;2022-12-10T00:11:07;1.80;99.90
13808;DHT22;40769;51.512;5.494;2022-12-10T00:13:34;1.70;99.90
13808;DHT22;40769;51.512;5.494;2022-12-10T00:16:00;2.50;99.90
13808;DHT22;40769;51.512;5.494;2022-12-10T00:18:26;1.50;99.90
13808;DHT22;40769;51.512;5.494;2022-12-10T00:20:52;1.50;99.90
13808;DHT22;40769;51.512;5.494;2022-12-10T00:23:18;1.50;99.90
13808;DHT22;40769;51.512;5.494;2022-12-10T00:25:44;1.40;99.90
13808;DHT22;40769;51.512;5.494;2022-12-10T00:28:12;1.50;99.90
13808;DHT22;40769;51.512;5.494;2022-12-10T00:30:37;1.60;99.90
13808;DHT22;40769;51.512;5.494;2022-12-10T00:33:03;1.90;99.90
13808;DHT22;40769;51.512;5.494;2022-12-10T00:35:28;2.00;99.90
13808;DHT22;40769;51.512;5.494;2022-12-10T00:37:54;2.20;99.90
13808;DHT22;40769;51.512;5.494;2022-12-10T00:40:21;2.10;99.90
13808;DHT22;40769;51.512;5.494;2022-12-10T00:42:47;2.10;99.90
13808;DHT22;40769;51.512;5.494;2022-12-10T00:45:12;1.90;99.90
13808;DHT22;40769;51.512;5.494;2022-12-10T00:47:38;1.80;99.90
13808;DHT22;40769;51.512;5.494;2022-12-10T00:50:04;1.70;99.90
13808;DHT22;40769;51.512;5.494;2022-12-10T00:52:29;1.60;99.90
13808;DHT22;40769;51.512;5.494;2022-12-10T00:54:55;1.50;99.90
13808;DHT22;40769;51.512;5.494;2022-12-10T00:57:21;1.50;99.90
13808;DHT22;40769;51.512;5.494;2022-12-10T00:59:46;1.50;99.90
13808;DHT22;40769;51.512;5.494;2022-12-10T01:02:12;1.40;99.90
13808;DHT22;40769;51.512;5.494;2022-12-10T01:04:37;1.50;99.90
13808;DHT22;40769;51.512;5.494;2022-12-10T01:07:03;1.50;99.90
13808;DHT22;40769;51.512;5.494;2022-12-10T01:09:30;1.50;99.90
13808;DHT22;40769;51.512;5.494;2022-12-10T01:11:59;1.60;99.90
13808;DHT22;40769;51.512;5.494;2022-12-10T01:14:30;1.80;99.90
13808;DHT22;40769;51.512;5.494;2022-12-10T01:17:01;2.00;99.90
13808;DHT22;40769;51.512;5.494;2022-12-10T01:19:30;2.10;99.90
13808;DHT22;40769;51.512;5.494;2022-12-10T01:21:56;2.30;99.90
13808;DHT22;40769;51.512;5.494;2022-12-10T01:24:24;2.10;99.90
13808;DHT22;40769;51.512;5.494;2022-12-10T01:26:50;1.90;99.90
13808;DHT22;40769;51.512;5.494;2022-12-10T01:29:16;1.60;99.90
13808;DHT22;40769;51.512;5.494;2022-12-10T01:31:42;1.50;99.90
13808;DHT22;40769;51.512;5.494;2022-12-10T01:34:11;1.40;99.90
13808;DHT22;40769;51.512;5.494;2022-12-10T01:36:39;1.20;99.90
13808;DHT22;40769;51.512;5.494;2022-12-10T01:39:08;1.30;99.90
13808;DHT22;40769;51.512;5.494;2022-12-10T01:41:49;1.20;99.90
13808;DHT22;40769;51.512;5.494;2022-12-10T01:46:43;1.30;99.90
13808;DHT22;40769;51.512;5.494;2022-12-10T01:49:21;1.30;99.90
13808;DHT22;40769;51.512;5.494;2022-12-10T01:51:50;1.40;99.90
13808;DHT22;40769;51.512;5.494;2022-12-10T01:54:22;1.50;99.90
13808;DHT22;40769;51.512;5.494;2022-12-10T01:57:08;1.60;99.90
13808;DHT22;40769;51.512;5.494;2022-12-10T01:59:35;1.80;99.90
13808;DHT22;40769;51.512;5.494;2022-12-10T02:04:43;1.90;99.90
13808;DHT22;40769;51.512;5.494;2022-12-10T02:10:12;1.70;99.90
13808;DHT22;40769;51.512;5.494;2022-12-10T02:13:04;1.70;99.90
13808;DHT22;40769;51.512;5.494;2022-12-10T02:15:35;1.50;99.90
13808;DHT22;40769;51.512;5.494;2022-12-10T02:18:27;1.40;99.90
13808;DHT22;40769;51.512;5.494;2022-12-10T02:20:57;1.50;99.90
13808;DHT22;40769;51.512;5.494;2022-12-10T02:23:30;1.50;99.90
13808;DHT22;40769;51.512;5.494;2022-12-10T02:31:52;1.90;99.90
13808;DHT22;40769;51.512;5.494;2022-12-10T02:34:20;2.00;99.90
13808;DHT22;40769;51.512;5.494;2022-12-10T02:36:49;2.20;99.90
13808;DHT22;40769;51.512;5.494;2022-12-10T02:39:22;2.30;99.90
13808;DHT22;40769;51.512;5.494;2022-12-10T02:41:52;2.50;99.90
13808;DHT22;40769;51.512;5.494;2022-12-10T02:44:20;2.60;99.90
13808;DHT22;40769;51.512;5.494;2022-12-10T02:46:48;2.60;99.90
13808;DHT22;40769;51.512;5.494;2022-12-10T02:49:16;2.50;99.90
13808;DHT22;40769;51.512;5.494;2022-12-10T02:51:42;2.40;99.90
13808;DHT22;40769;51.512;5.494;2022-12-10T02:54:35;2.40;99.90
13808;DHT22;40769;51.512;5.494;2022-12-10T02:57:57;2.40;99.90
13808;DHT22;40769;51.512;5.494;2022-12-10T03:05:27;2.20;99.90
13808;DHT22;40769;51.512;5.494;2022-12-10T03:08:05;2.20;99.90
13808;DHT22;40769;51.512;5.494;2022-12-10T03:10:36;2.80;99.90
13808;DHT22;40769;51.512;5.494;2022-12-10T03:13:08;2.30;99.90
13808;DHT22;40769;51.512;5.494;2022-12-10T03:15:37;2.30;99.90
13808;DHT22;40769;51.512;5.494;2022-12-10T03:18:03;2.40;99.90
13808;DHT22;40769;51.512;5.494;2022-12-10T03:20:32;2.50;99.90
13808;DHT22;40769;51.512;5.494;2022-12-10T03:23:01;2.70;99.90
13808;DHT22;40769;51.512;5.494;2022-12-10T03:25:30;2.70;99.90
13808;DHT22;40769;51.512;5.494;2022-12-10T03:27:58;2.70;99.90
13808;DHT22;40769;51.512;5.494;2022-12-10T03:30:25;2.60;99.90
13808;DHT22;40769;51.512;5.494;2022-12-10T03:32:51;2.60;99.90
13808;DHT22;40769;51.512;5.494;2022-12-10T03:35:19;2.50;99.90
13808;DHT22;40769;51.512;5.494;2022-12-10T03:37:45;2.40;99.90
13808;DHT22;40769;51.512;5.494;2022-12-10T03:40:12;3.50;99.90
13808;DHT22;40769;51.512;5.494;2022-12-10T03:42:38;2.50;99.90
13808;DHT22;40769;51.512;5.494;2022-12-10T03:45:04;2.50;99.90
13808;DHT22;40769;51.512;5.494;2022-12-10T03:47:30;2.50;99.90
13808;DHT22;40769;51.512;5.494;2022-12-10T03:49:56;2.50;99.90
13808;DHT22;40769;51.512;5.494;2022-12-10T03:52:22;2.60;99.90
13808;DHT22;40769;51.512;5.494;2022-12-10T03:54:47;2.60;99.90
13808;DHT22;40769;51.512;5.494;2022-12-10T03:57:13;2.70;99.90
13808;DHT22;40769;51.512;5.494;2022-12-10T03:59:39;2.80;99.90
13808;DHT22;40769;51.512;5.494;2022-12-10T04:02:05;3.00;99.90
13808;DHT22;40769;51.512;5.494;2022-12-10T04:04:31;3.10;99.90
13808;DHT22;40769;51.512;5.494;2022-12-10T04:06:56;3.20;99.90
13808;DHT22;40769;51.512;5.494;2022-12-10T04:09:22;3.20;99.90
13808;DHT22;40769;51.512;5.494;2022-12-10T04:11:48;3.20;99.90
13808;DHT22;40769;51.512;5.494;2022-12-10T04:14:14;3.10;99.90
13808;DHT22;40769;51.512;5.494;2022-12-10T04:16:58;2.90;99.90
13808;DHT22;40769;51.512;5.494;2022-12-10T04:19:25;4.00;99.90
13808;DHT22;40769;51.512;5.494;2022-12-10T04:21:51;2.80;99.90
13808;DHT22;40769;51.512;5.494;2022-12-10T04:24:36;2.70;99.90
13808;DHT22;40769;51.512;5.494;2022-12-10T04:27:32;2.80;99.90
13808;DHT22;40769;51.512;5.494;2022-12-10T04:29:59;2.90;99.90
13808;DHT22;40769;51.512;5.494;2022-12-10T04:32:27;3.00;99.90
13808;DHT22;40769;51.512;5.494;2022-12-10T04:34:54;3.00;99.90
13808;DHT22;40769;51.512;5.494;2022-12-10T04:37:20;3.10;99.90
13808;DHT22;40769;51.512;5.494;2022-12-10T04:39:47;3.20;99.90
13808;DHT22;40769;51.512;5.494;2022-12-10T04:42:13;3.30;99.90
13808;DHT22;40769;51.512;5.494;2022-12-10T04:44:38;3.50;99.90
13808;DHT22;40769;51.512;5.494;2022-12-10T04:47:05;3.60;99.90
13808;DHT22;40769;51.512;5.494;2022-12-10T04:49:31;3.70;99.90
13808;DHT22;40769;51.512;5.494;2022-12-10T04:51:57;3.80;99.90
13808;DHT22;40769;51.512;5.494;2022-12-10T04:54:23;3.70;99.90
13808;DHT22;40769;51.512;5.494;2022-12-10T04:56:49;3.60;99.90
13808;DHT22;40769;51.512;5.494;2022-12-10T04:59:15;3.40;99.90
13808;DHT22;40769;51.512;5.494;2022-12-10T05:01:40;3.30;99.90
13808;DHT22;40769;51.512;5.494;2022-12-10T05:04:09;3.20;99.90
13808;DHT22;40769;51.512;5.494;2022-12-10T05:06:35;3.10;99.90
13808;DHT22;40769;51.512;5.494;2022-12-10T05:09:01;3.10;99.90
13808;DHT22;40769;51.512;5.494;2022-12-10T05:11:29;3.00;99.90
13808;DHT22;40769;51.512;5.494;2022-12-10T05:13:55;3.60;99.90
13808;DHT22;40769;51.512;5.494;2022-12-10T05:16:22;2.90;99.90
13808;DHT22;40769;51.512;5.494;2022-12-10T05:18:49;3.00;99.90
13808;DHT22;40769;51.512;5.494;2022-12-10T05:21:16;3.00;99.90
13808;DHT22;40769;51.512;5.494;2022-12-10T05:23:46;3.10;99.90
13808;DHT22;40769;51.512;5.494;2022-12-10T05:26:17;3.30;99.90
13808;DHT22;40769;51.512;5.494;2022-12-10T05:28:45;3.20;99.90
13808;DHT22;40769;51.512;5.494;2022-12-10T05:31:18;3.60;99.90
13808;DHT22;40769;51.512;5.494;2022-12-10T05:33:44;3.60;99.90
13808;DHT22;40769;51.512;5.494;2022-12-10T05:36:11;3.50;99.90
13808;DHT22;40769;51.512;5.494;2022-12-10T05:38:38;3.30;99.90
13808;DHT22;40769;51.512;5.494;2022-12-10T05:41:06;3.20;99.90
13808;DHT22;40769;51.512;5.494;2022-12-10T05:43:32;3.10;99.90
13808;DHT22;40769;51.512;5.494;2022-12-10T05:46:06;3.10;99.90
13808;DHT22;40769;51.512;5.494;2022-12-10T05:48:33;3.00;99.90
13808;DHT22;40769;51.512;5.494;2022-12-10T05:51:14;3.10;99.90
13808;DHT22;40769;51.512;5.494;2022-12-10T05:53:40;3.20;99.90
13808;DHT22;40769;51.512;5.494;2022-12-10T05:56:09;3.30;99.90
13808;DHT22;40769;51.512;5.494;2022-12-10T05:58:36;3.40;99.90
13808;DHT22;40769;51.512;5.494;2022-12-10T06:01:10;3.40;99.90
13808;DHT22;40769;51.512;5.494;2022-12-10T06:03:36;3.50;99.90
13808;DHT22;40769;51.512;5.494;2022-12-10T06:06:03;3.50;99.90
13808;DHT22;40769;51.512;5.494;2022-12-10T06:08:28;3.50;99.90
13808;DHT22;40769;51.512;5.494;2022-12-10T06:10:54;3.60;99.90
13808;DHT22;40769;51.512;5.494;2022-12-10T06:13:21;3.80;99.90
13808;DHT22;40769;51.512;5.494;2022-12-10T06:15:47;3.70;99.90
13808;DHT22;40769;51.512;5.494;2022-12-10T06:18:12;3.60;99.90
13808;DHT22;40769;51.512;5.494;2022-12-10T06:20:38;3.50;99.90
13808;DHT22;40769;51.512;5.494;2022-12-10T06:23:05;3.40;99.90
13808;DHT22;40769;51.512;5.494;2022-12-10T06:25:31;3.30;99.90
13808;DHT22;40769;51.512;5.494;2022-12-10T06:27:56;3.20;99.90
13808;DHT22;40769;51.512;5.494;2022-12-10T06:30:22;3.10;99.90
13808;DHT22;40769;51.512;5.494;2022-12-10T06:32:47;3.10;99.90
13808;DHT22;40769;51.512;5.494;2022-12-10T06:35:13;3.10;99.90
13808;DHT22;40769;51.512;5.494;2022-12-10T06:37:38;3.10;99.90
13808;DHT22;40769;51.512;5.494;2022-12-10T06:40:05;3.20;99.90
13808;DHT22;40769;51.512;5.494;2022-12-10T06:42:30;3.20;99.90
13808;DHT22;40769;51.512;5.494;2022-12-10T06:44:56;3.20;99.90
13808;DHT22;40769;51.512;5.494;2022-12-10T06:47:22;3.20;99.90
13808;DHT22;40769;51.512;5.494;2022-12-10T06:49:48;3.40;99.90
13808;DHT22;40769;51.512;5.494;2022-12-10T06:52:13;3.20;99.90
13808;DHT22;40769;51.512;5.494;2022-12-10T06:54:39;3.20;99.90
13808;DHT22;40769;51.512;5.494;2022-12-10T06:57:05;3.20;99.90
13808;DHT22;40769;51.512;5.494;2022-12-10T06:59:31;3.10;99.90
13808;DHT22;40769;51.512;5.494;2022-12-10T07:01:56;3.00;99.90
13808;DHT22;40769;51.512;5.494;2022-12-10T07:04:22;2.90;99.90
13808;DHT22;40769;51.512;5.494;2022-12-10T07:06:48;2.80;99.90
13808;DHT22;40769;51.512;5.494;2022-12-10T07:09:13;2.80;99.90
13808;DHT22;40769;51.512;5.494;2022-12-10T07:11:39;2.80;99.90
13808;DHT22;40769;51.512;5.494;2022-12-10T07:14:05;3.10;99.90
13808;DHT22;40769;51.512;5.494;2022-12-10T07:16:31;2.80;99.90
13808;DHT22;40769;51.512;5.494;2022-12-10T07:18:59;2.80;99.90
13808;DHT22;40769;51.512;5.494;2022-12-10T07:21:31;2.90;99.90
13808;DHT22;40769;51.512;5.494;2022-12-10T07:24:00;2.90;99.90
13808;DHT22;40769;51.512;5.494;2022-12-10T07:26:29;2.90;99.90
13808;DHT22;40769;51.512;5.494;2022-12-10T07:28:55;2.90;99.90
13808;DHT22;40769;51.512;5.494;2022-12-10T07:31:21;2.90;99.90
13808;DHT22;40769;51.512;5.494;2022-12-10T07:33:49;2.60;99.90
13808;DHT22;40769;51.512;5.494;2022-12-10T07:36:15;3.00;99.90
13808;DHT22;40769;51.512;5.494;2022-12-10T07:38:41;3.10;99.90
13808;DHT22;40769;51.512;5.494;2022-12-10T07:41:10;3.20;99.90
13808;DHT22;40769;51.512;5.494;2022-12-10T07:43:39;3.20;99.90
13808;DHT22;40769;51.512;5.494;2022-12-10T07:46:07;3.20;99.90
13808;DHT22;40769;51.512;5.494;2022-12-10T07:48:34;3.10;99.90
13808;DHT22;40769;51.512;5.494;2022-12-10T07:50:59;3.00;99.90
13808;DHT22;40769;51.512;5.494;2022-12-10T07:53:25;2.90;99.90
13808;DHT22;40769;51.512;5.494;2022-12-10T07:55:51;2.80;99.90
13808;DHT22;40769;51.512;5.494;2022-12-10T07:58:16;2.80;99.90
13808;DHT22;40769;51.512;5.494;2022-12-10T08:00:42;2.80;99.90
13808;DHT22;40769;51.512;5.494;2022-12-10T08:03:08;2.90;99.90
13808;DHT22;40769;51.512;5.494;2022-12-10T08:05:33;2.80;99.90
13808;DHT22;40769;51.512;5.494;2022-12-10T08:07:59;2.90;99.90
13808;DHT22;40769;51.512;5.494;2022-12-10T08:10:25;2.90;99.90
13808;DHT22;40769;51.512;5.494;2022-12-10T08:12:50;2.90;99.90
13808;DHT22;40769;51.512;5.494;2022-12-10T08:15:16;3.00;99.90
13808;DHT22;40769;51.512;5.494;2022-12-10T08:17:42;3.10;99.90
13808;DHT22;40769;51.512;5.494;2022-12-10T08:20:08;3.10;99.90
13808;DHT22;40769;51.512;5.494;2022-12-10T08:22:36;2.60;99.90
13808;DHT22;40769;51.512;5.494;2022-12-10T08:25:02;3.30;99.90
13808;DHT22;40769;51.512;5.494;2022-12-10T08:27:28;3.30;99.90
13808;DHT22;40769;51.512;5.494;2022-12-10T08:29:54;3.30;99.90
13808;DHT22;40769;51.512;5.494;2022-12-10T08:32:19;3.30;99.90
13808;DHT22;40769;51.512;5.494;2022-12-10T08:34:45;3.30;99.90
13808;DHT22;40769;51.512;5.494;2022-12-10T08:37:10;3.30;99.90
13808;DHT22;40769;51.512;5.494;2022-12-10T08:39:36;3.30;99.90
13808;DHT22;40769;51.512;5.494;2022-12-10T08:42:02;3.20;99.90
13808;DHT22;40769;51.512;5.494;2022-12-10T08:44:27;3.10;99.90
13808;DHT22;40769;51.512;5.494;2022-12-10T08:46:53;3.10;99.90
13808;DHT22;40769;51.512;5.494;2022-12-10T08:49:19;3.00;99.90
13808;DHT22;40769;51.512;5.494;2022-12-10T08:51:44;3.10;99.90
13808;DHT22;40769;51.512;5.494;2022-12-10T08:54:10;3.10;99.90
13808;DHT22;40769;51.512;5.494;2022-12-10T08:56:35;3.60;99.90
13808;DHT22;40769;51.512;5.494;2022-12-10T08:59:01;3.30;99.90
13808;DHT22;40769;51.512;5.494;2022-12-10T09:01:27;3.30;99.90
13808;DHT22;40769;51.512;5.494;2022-12-10T09:03:52;3.30;99.90
13808;DHT22;40769;51.512;5.494;2022-12-10T09:06:21;3.50;99.90
13808;DHT22;40769;51.512;5.494;2022-12-10T09:08:47;3.40;99.90
13808;DHT22;40769;51.512;5.494;2022-12-10T09:11:16;3.40;99.90
13808;DHT22;40769;51.512;5.494;2022-12-10T09:13:42;3.30;99.90
13808;DHT22;40769;51.512;5.494;2022-12-10T09:16:09;3.50;99.90
13808;DHT22;40769;51.512;5.494;2022-12-10T09:18:35;3.50;99.90
13808;DHT22;40769;51.512;5.494;2022-12-10T09:21:07;4.50;99.90
13808;DHT22;40769;51.512;5.494;2022-12-10T09:23:33;3.50;99.90
13808;DHT22;40769;51.512;5.494;2022-12-10T09:25:59;3.50;99.90
13808;DHT22;40769;51.512;5.494;2022-12-10T09:28:25;3.50;99.90
13808;DHT22;40769;51.512;5.494;2022-12-10T09:30:58;3.40;99.90
13808;DHT22;40769;51.512;5.494;2022-12-10T09:33:24;3.30;99.90
13808;DHT22;40769;51.512;5.494;2022-12-10T09:35:50;3.30;99.90
13808;DHT22;40769;51.512;5.494;2022-12-10T09:38:16;3.30;99.90
13808;DHT22;40769;51.512;5.494;2022-12-10T09:40:50;3.20;99.90
13808;DHT22;40769;51.512;5.494;2022-12-10T09:43:47;3.20;99.90
13808;DHT22;40769;51.512;5.494;2022-12-10T09:51:31;3.20;99.90
13808;DHT22;40769;51.512;5.494;2022-12-10T09:53:59;3.30;99.90
13808;DHT22;40769;51.512;5.494;2022-12-10T09:56:29;3.30;99.90
13808;DHT22;40769;51.512;5.494;2022-12-10T09:58:57;3.70;99.90
13808;DHT22;40769;51.512;5.494;2022-12-10T10:01:27;3.70;99.90
13808;DHT22;40769;51.512;5.494;2022-12-10T10:03:53;3.90;99.90
13808;DHT22;40769;51.512;5.494;2022-12-10T10:06:20;4.10;99.90
13808;DHT22;40769;51.512;5.494;2022-12-10T10:08:49;4.20;99.90
13808;DHT22;40769;51.512;5.494;2022-12-10T10:11:24;4.30;99.90
13808;DHT22;40769;51.512;5.494;2022-12-10T10:13:56;4.40;99.90
13808;DHT22;40769;51.512;5.494;2022-12-10T10:16:32;4.40;99.90
13808;DHT22;40769;51.512;5.494;2022-12-10T10:19:16;4.50;99.90
13808;DHT22;40769;51.512;5.494;2022-12-10T10:21:48;4.40;99.90
13808;DHT22;40769;51.512;5.494;2022-12-10T10:24:20;4.30;99.90
13808;DHT22;40769;51.512;5.494;2022-12-10T10:26:47;4.20;99.90
13808;DHT22;40769;51.512;5.494;2022-12-10T10:29:17;4.10;99.90
13808;DHT22;40769;51.512;5.494;2022-12-10T10:31:44;4.00;99.90
13808;DHT22;40769;51.512;5.494;2022-12-10T10:34:17;4.00;99.90
13808;DHT22;40769;51.512;5.494;2022-12-10T10:36:44;3.90;99.90
13808;DHT22;40769;51.512;5.494;2022-12-10T10:39:22;3.90;99.90
13808;DHT22;40769;51.512;5.494;2022-12-10T10:41:53;3.80;99.90
13808;DHT22;40769;51.512;5.494;2022-12-10T10:44:23;3.80;99.90
13808;DHT22;40769;51.512;5.494;2022-12-10T10:46:52;3.80;99.90
13808;DHT22;40769;51.512;5.494;2022-12-10T10:49:25;3.70;99.90
13808;DHT22;40769;51.512;5.494;2022-12-10T10:51:52;3.70;99.90
13808;DHT22;40769;51.512;5.494;2022-12-10T10:54:38;3.70;99.90
13808;DHT22;40769;51.512;5.494;2022-12-10T10:57:14;3.70;99.90
13808;DHT22;40769;51.512;5.494;2022-12-10T10:59:41;3.80;99.90
13808;DHT22;40769;51.512;5.494;2022-12-10T11:02:41;3.90;99.90
13808;DHT22;40769;51.512;5.494;2022-12-10T11:07:44;4.00;99.90
13808;DHT22;40769;51.512;5.494;2022-12-10T11:10:17;4.00;99.90
13808;DHT22;40769;51.512;5.494;2022-12-10T11:12:44;3.90;99.90
13808;DHT22;40769;51.512;5.494;2022-12-10T11:17:54;4.50;99.90
13808;DHT22;40769;51.512;5.494;2022-12-10T11:23:01;3.60;99.90
13808;DHT22;40769;51.512;5.494;2022-12-10T11:30:33;3.60;99.90
13808;DHT22;40769;51.512;5.494;2022-12-10T11:33:24;3.60;99.90
13808;DHT22;40769;51.512;5.494;2022-12-10T11:44:14;3.60;99.90
13808;DHT22;40769;51.512;5.494;2022-12-10T11:47:16;3.70;99.90
13808;DHT22;40769;51.512;5.494;2022-12-10T11:55:21;3.80;99.90
13808;DHT22;40769;51.512;5.494;2022-12-10T12:06:46;4.00;99.90
13808;DHT22;40769;51.512;5.494;2022-12-10T12:09:51;4.00;99.90
13808;DHT22;40769;51.512;5.494;2022-12-10T12:15:16;4.00;99.90
13808;DHT22;40769;51.512;5.494;2022-12-10T12:17:52;4.00;99.90
13808;DHT22;40769;51.512;5.494;2022-12-10T12:20:29;4.10;99.90
13808;DHT22;40769;51.512;5.494;2022-12-10T12:23:04;4.20;99.90
13808;DHT22;40769;51.512;5.494;2022-12-10T12:25:38;4.40;99.90
13808;DHT22;40769;51.512;5.494;2022-12-10T12:28:16;4.40;99.90
13808;DHT22;40769;51.512;5.494;2022-12-10T12:30:47;4.40;99.90
13808;DHT22;40769;51.512;5.494;2022-12-10T12:33:28;4.20;99.90
13808;DHT22;40769;51.512;5.494;2022-12-10T12:43:28;4.10;99.90
13808;DHT22;40769;51.512;5.494;2022-12-10T12:45:56;4.00;99.90
13808;DHT22;40769;51.512;5.494;2022-12-10T12:48:47;4.00;99.90
13808;DHT22;40769;51.512;5.494;2022-12-10T12:51:33;4.10;99.90
13808;DHT22;40769;51.512;5.494;2022-12-10T12:54:00;4.10;99.90
13808;DHT22;40769;51.512;5.494;2022-12-10T13:05:38;4.40;99.90
13808;DHT22;40769;51.512;5.494;2022-12-10T13:10:52;4.30;99.90
13808;DHT22;40769;51.512;5.494;2022-12-10T13:13:29;4.20;99.90
13808;DHT22;40769;51.512;5.494;2022-12-10T13:15:56;4.10;99.90
13808;DHT22;40769;51.512;5.494;2022-12-10T13:18:41;4.00;99.90
13808;DHT22;40769;51.512;5.494;2022-12-10T13:23:53;4.00;99.90
13808;DHT22;40769;51.512;5.494;2022-12-10T13:26:29;4.20;99.90
13808;DHT22;40769;51.512;5.494;2022-12-10T13:29:10;4.10;99.90
13808;DHT22;40769;51.512;5.494;2022-12-10T13:31:37;4.10;99.90
13808;DHT22;40769;51.512;5.494;2022-12-10T13:39:22;4.20;99.90
13808;DHT22;40769;51.512;5.494;2022-12-10T13:47:41;4.10;99.90
13808;DHT22;40769;51.512;5.494;2022-12-10T13:50:33;4.10;99.90
13808;DHT22;40769;51.512;5.494;2022-12-10T14:04:39;4.20;99.90
13808;DHT22;40769;51.512;5.494;2022-12-10T14:07:11;4.30;99.90
13808;DHT22;40769;51.512;5.494;2022-12-10T14:09:49;4.40;99.90
13808;DHT22;40769;51.512;5.494;2022-12-10T14:12:19;4.30;99.90
13808;DHT22;40769;51.512;5.494;2022-12-10T14:14:52;4.30;99.90
13808;DHT22;40769;51.512;5.494;2022-12-10T14:17:21;4.20;99.90
13808;DHT22;40769;51.512;5.494;2022-12-10T14:19:50;4.20;99.90
13808;DHT22;40769;51.512;5.494;2022-12-10T14:22:38;3.60;99.90
13808;DHT22;40769;51.512;5.494;2022-12-10T14:25:10;4.00;99.90
13808;DHT22;40769;51.512;5.494;2022-12-10T14:27:36;4.00;99.90
13808;DHT22;40769;51.512;5.494;2022-12-10T14:30:19;4.00;99.90
13808;DHT22;40769;51.512;5.494;2022-12-10T14:32:46;4.00;99.90
13808;DHT22;40769;51.512;5.494;2022-12-10T14:35:26;4.00;99.90
13808;DHT22;40769;51.512;5.494;2022-12-10T14:37:55;4.00;99.90
13808;DHT22;40769;51.512;5.494;2022-12-10T14:40:39;3.90;99.90
13808;DHT22;40769;51.512;5.494;2022-12-10T14:43:18;3.90;99.90
13808;DHT22;40769;51.512;5.494;2022-12-10T14:45:48;3.80;99.90
13808;DHT22;40769;51.512;5.494;2022-12-10T14:48:16;3.80;99.90
13808;DHT22;40769;51.512;5.494;2022-12-10T14:50:43;3.80;99.90
13808;DHT22;40769;51.512;5.494;2022-12-10T14:53:17;3.70;99.90
13808;DHT22;40769;51.512;5.494;2022-12-10T14:55:46;3.70;99.90
13808;DHT22;40769;51.512;5.494;2022-12-10T14:58:28;3.70;99.90
13808;DHT22;40769;51.512;5.494;2022-12-10T15:00:55;3.70;99.90
13808;DHT22;40769;51.512;5.494;2022-12-10T15:03:30;3.70;99.90
13808;DHT22;40769;51.512;5.494;2022-12-10T15:05:59;3.80;99.90
13808;DHT22;40769;51.512;5.494;2022-12-10T15:08:26;3.90;99.90
13808;DHT22;40769;51.512;5.494;2022-12-10T15:10:56;3.90;99.90
13808;DHT22;40769;51.512;5.494;2022-12-10T15:13:29;4.00;99.90
13808;DHT22;40769;51.512;5.494;2022-12-10T15:15:57;4.10;99.90
13808;DHT22;40769;51.512;5.494;2022-12-10T15:18:32;4.20;99.90
13808;DHT22;40769;51.512;5.494;2022-12-10T15:23:39;4.20;99.90
13808;DHT22;40769;51.512;5.494;2022-12-10T15:26:24;4.10;99.90
13808;DHT22;40769;51.512;5.494;2022-12-10T15:28:52;4.00;99.90
13808;DHT22;40769;51.512;5.494;2022-12-10T15:31:30;3.90;99.90
13808;DHT22;40769;51.512;5.494;2022-12-10T15:33:57;3.90;99.90
13808;DHT22;40769;51.512;5.494;2022-12-10T15:36:50;3.80;99.90
13808;DHT22;40769;51.512;5.494;2022-12-10T15:39:23;3.80;99.90
13808;DHT22;40769;51.512;5.494;2022-12-10T15:41:55;3.80;99.90
13808;DHT22;40769;51.512;5.494;2022-12-10T15:47:23;3.80;99.90
13808;DHT22;40769;51.512;5.494;2022-12-10T15:49:53;3.80;99.90
13808;DHT22;40769;51.512;5.494;2022-12-10T15:54:48;3.70;99.90
13808;DHT22;40769;51.512;5.494;2022-12-10T15:57:35;3.70;99.90
13808;DHT22;40769;51.512;5.494;2022-12-10T16:00:08;3.80;99.90
13808;DHT22;40769;51.512;5.494;2022-12-10T16:05:35;3.90;99.90
13808;DHT22;40769;51.512;5.494;2022-12-10T16:08:22;4.00;99.90
13808;DHT22;40769;51.512;5.494;2022-12-10T16:10:49;3.90;99.90
13808;DHT22;40769;51.512;5.494;2022-12-10T16:13:18;3.90;99.90
13808;DHT22;40769;51.512;5.494;2022-12-10T16:15:50;3.80;99.90
13808;DHT22;40769;51.512;5.494;2022-12-10T16:18:17;3.80;99.90
13808;DHT22;40769;51.512;5.494;2022-12-10T16:20:43;3.70;99.90
13808;DHT22;40769;51.512;5.494;2022-12-10T16:23:09;3.70;99.90
13808;DHT22;40769;51.512;5.494;2022-12-10T16:25:35;3.70;99.90
13808;DHT22;40769;51.512;5.494;2022-12-10T16:28:02;3.80;99.90
13808;DHT22;40769;51.512;5.494;2022-12-10T16:30:44;3.80;99.90
13808;DHT22;40769;51.512;5.494;2022-12-10T16:33:11;3.80;99.90
13808;DHT22;40769;51.512;5.494;2022-12-10T16:35:37;3.80;99.90
13808;DHT22;40769;51.512;5.494;2022-12-10T16:38:03;3.80;99.90
13808;DHT22;40769;51.512;5.494;2022-12-10T16:40:29;3.80;99.90
13808;DHT22;40769;51.512;5.494;2022-12-10T16:42:55;3.80;99.90
13808;DHT22;40769;51.512;5.494;2022-12-10T16:45:29;3.80;99.90
13808;DHT22;40769;51.512;5.494;2022-12-10T16:47:55;3.80;99.90
13808;DHT22;40769;51.512;5.494;2022-12-10T16:50:21;3.80;99.90
13808;DHT22;40769;51.512;5.494;2022-12-10T16:52:47;3.90;99.90
13808;DHT22;40769;51.512;5.494;2022-12-10T16:55:16;3.90;99.90
13808;DHT22;40769;51.512;5.494;2022-12-10T16:57:42;3.90;99.90
13808;DHT22;40769;51.512;5.494;2022-12-10T17:00:10;4.00;99.90
13808;DHT22;40769;51.512;5.494;2022-12-10T17:02:36;4.10;99.90
13808;DHT22;40769;51.512;5.494;2022-12-10T17:05:02;4.10;99.90
13808;DHT22;40769;51.512;5.494;2022-12-10T17:07:28;4.20;99.90
13808;DHT22;40769;51.512;5.494;2022-12-10T17:09:53;4.20;99.90
13808;DHT22;40769;51.512;5.494;2022-12-10T17:12:19;4.30;99.90
13808;DHT22;40769;51.512;5.494;2022-12-10T17:14:45;4.10;99.90
13808;DHT22;40769;51.512;5.494;2022-12-10T17:17:13;4.10;99.90
13808;DHT22;40769;51.512;5.494;2022-12-10T17:19:40;3.90;99.90
13808;DHT22;40769;51.512;5.494;2022-12-10T17:22:06;3.90;99.90
13808;DHT22;40769;51.512;5.494;2022-12-10T17:24:33;4.40;99.90
13808;DHT22;40769;51.512;5.494;2022-12-10T17:27:13;3.90;99.90
13808;DHT22;40769;51.512;5.494;2022-12-10T17:29:42;3.80;99.90
13808;DHT22;40769;51.512;5.494;2022-12-10T17:32:13;3.80;99.90
13808;DHT22;40769;51.512;5.494;2022-12-10T17:34:39;3.80;99.90
13808;DHT22;40769;51.512;5.494;2022-12-10T17:37:14;3.80;99.90
13808;DHT22;40769;51.512;5.494;2022-12-10T17:39:40;3.80;99.90
13808;DHT22;40769;51.512;5.494;2022-12-10T17:42:06;3.80;99.90
13808;DHT22;40769;51.512;5.494;2022-12-10T17:44:34;3.90;99.90
13808;DHT22;40769;51.512;5.494;2022-12-10T17:47:00;3.90;99.90
13808;DHT22;40769;51.512;5.494;2022-12-10T17:49:26;3.90;99.90
13808;DHT22;40769;51.512;5.494;2022-12-10T17:51:52;3.90;99.90
13808;DHT22;40769;51.512;5.494;2022-12-10T17:54:23;4.00;99.90
13808;DHT22;40769;51.512;5.494;2022-12-10T17:56:49;4.00;99.90
13808;DHT22;40769;51.512;5.494;2022-12-10T17:59:14;4.00;99.90